createdAt,value
2018-12-19T00:01:06.533Z,11.07
2018-12-19T00:03:35.864Z,9.13
2018-12-19T00:06:05.276Z,11.17
2018-12-19T00:08:34.539Z,13.77
2018-12-19T00:11:03.816Z,11.37
2018-12-19T00:13:33.043Z,13.07
2018-12-19T00:16:02.323Z,11.20
2018-12-19T00:18:31.611Z,11.40
2018-12-19T00:21:00.965Z,5.40
2018-12-19T00:23:29.834Z,9.80
2018-12-19T00:25:58.975Z,10.10
2018-12-19T00:28:27.846Z,11.57
2018-12-19T00:30:57.059Z,20.77
2018-12-19T00:33:26.312Z,11.65
2018-12-19T00:35:55.554Z,16.83
2018-12-19T00:38:24.805Z,10.83
2018-12-19T00:40:54.068Z,14.33
2018-12-19T00:43:23.340Z,14.60
2018-12-19T00:45:52.603Z,9.00
2018-12-19T00:48:21.514Z,13.53
2018-12-19T00:50:50.675Z,14.50
2018-12-19T00:53:20.467Z,14.53
2018-12-19T00:55:49.703Z,9.90
2018-12-19T00:58:18.567Z,13.17
2018-12-19T01:00:47.778Z,16.17
2018-12-19T01:03:17.019Z,13.45
2018-12-19T01:05:46.271Z,8.03
2018-12-19T01:08:15.516Z,13.90
2018-12-19T01:10:44.765Z,11.37
2018-12-19T01:13:16.125Z,11.63
2018-12-19T01:15:45.411Z,15.67
2018-12-19T01:18:15.831Z,16.07
2018-12-19T01:20:45.193Z,15.73
2018-12-19T01:23:14.411Z,11.27
2018-12-19T01:25:43.680Z,11.70
2018-12-19T01:28:12.987Z,12.40
2018-12-19T01:30:42.218Z,14.30
2018-12-19T01:33:11.452Z,13.13
2018-12-19T01:35:40.338Z,16.60
2018-12-19T01:38:09.480Z,17.83
2018-12-19T01:40:38.784Z,12.73
2018-12-19T01:43:08.059Z,10.53
2018-12-19T01:45:37.303Z,15.77
2018-12-19T01:48:06.615Z,12.13
2018-12-19T01:50:35.936Z,19.45
2018-12-19T01:53:05.275Z,11.33
2018-12-19T01:55:34.511Z,14.70
2018-12-19T01:58:03.763Z,18.00
2018-12-19T02:00:33.946Z,14.40
2018-12-19T02:03:03.217Z,15.03
2018-12-19T02:05:32.476Z,15.28
2018-12-19T02:08:01.732Z,20.07
2018-12-19T02:10:30.607Z,12.90
2018-12-19T02:12:59.752Z,11.73
2018-12-19T02:15:29.323Z,17.37
2018-12-19T02:17:58.258Z,16.30
2018-12-19T02:20:27.034Z,9.97
2018-12-19T02:22:56.180Z,23.13
2018-12-19T02:25:25.078Z,15.78
2018-12-19T02:27:54.259Z,17.00
2018-12-19T02:30:23.528Z,12.23
2018-12-19T02:32:52.779Z,16.07
2018-12-19T02:35:21.687Z,12.90
2018-12-19T02:37:50.836Z,14.17
2018-12-19T02:40:20.510Z,14.87
2018-12-19T02:42:49.763Z,21.17
2018-12-19T02:45:19.144Z,12.00
2018-12-19T02:47:48.388Z,15.90
2018-12-19T02:50:17.632Z,18.40
2018-12-19T02:52:46.873Z,17.47
2018-12-19T02:55:16.173Z,16.70
2018-12-19T02:57:45.415Z,20.20
2018-12-19T03:00:14.660Z,16.57
2018-12-19T03:02:44.039Z,15.47
2018-12-19T03:05:13.427Z,16.47
2018-12-19T03:07:42.767Z,16.87
2018-12-19T03:10:11.674Z,20.30
2018-12-19T03:12:41.160Z,14.43
2018-12-19T03:15:10.403Z,11.43
2018-12-19T03:17:39.635Z,14.90
2018-12-19T03:20:09.115Z,11.20
2018-12-19T03:22:38.338Z,17.67
2018-12-19T03:25:07.644Z,15.07
2018-12-19T03:27:36.915Z,12.53
2018-12-19T03:30:06.537Z,12.17
2018-12-19T03:32:35.771Z,16.80
2018-12-19T03:35:05.230Z,17.33
2018-12-19T03:37:34.535Z,14.57
2018-12-19T03:40:04.636Z,15.87
2018-12-19T03:42:33.924Z,21.13
2018-12-19T03:45:03.240Z,19.53
2018-12-19T03:47:32.467Z,18.90
2018-12-19T03:50:01.959Z,13.73
2018-12-19T03:52:31.244Z,15.63
2018-12-19T03:55:00.114Z,16.33
2018-12-19T03:57:29.564Z,14.43
2018-12-19T03:59:58.825Z,15.90
2018-12-19T04:02:28.164Z,16.70
2018-12-19T04:05:00.296Z,20.13
2018-12-19T04:07:29.562Z,19.02
2018-12-19T04:09:58.811Z,14.40
2018-12-19T04:12:28.044Z,20.35
2018-12-19T04:14:57.839Z,20.83
2018-12-19T04:17:27.196Z,10.27
2018-12-19T04:19:56.447Z,19.73
2018-12-19T04:22:25.783Z,19.70
2018-12-19T04:24:54.647Z,14.73
2018-12-19T04:27:23.824Z,16.23
2018-12-19T04:29:52.882Z,17.07
2018-12-19T04:32:22.387Z,13.77
2018-12-19T04:34:51.631Z,13.80
2018-12-19T04:37:20.897Z,13.60
2018-12-19T04:39:50.150Z,17.53
2018-12-19T04:42:20.377Z,18.50
2018-12-19T04:44:49.254Z,14.63
2018-12-19T04:47:18.433Z,13.50
2018-12-19T04:49:47.691Z,15.87
2018-12-19T04:52:16.926Z,13.47
2018-12-19T04:54:45.839Z,16.23
2018-12-19T04:57:15.122Z,18.43
2018-12-19T04:59:44.359Z,15.00
2018-12-19T05:02:13.611Z,17.53
2018-12-19T05:04:42.878Z,12.87
2018-12-19T05:07:11.823Z,10.17
2018-12-19T05:09:41.013Z,16.20
2018-12-19T05:12:10.549Z,15.60
2018-12-19T05:14:40.051Z,13.23
2018-12-19T05:17:09.791Z,17.80
2018-12-19T05:19:39.211Z,11.60
2018-12-19T05:22:08.475Z,17.67
2018-12-19T05:24:37.822Z,20.27
2018-12-19T05:27:07.083Z,17.93
2018-12-19T05:29:35.972Z,15.50
2018-12-19T05:32:05.147Z,13.50
2018-12-19T05:34:34.062Z,11.88
2018-12-19T05:37:03.310Z,15.03
2018-12-19T05:39:32.163Z,14.47
2018-12-19T05:42:01.390Z,19.15
2018-12-19T05:44:30.656Z,16.52
2018-12-19T05:47:00.014Z,13.03
2018-12-19T05:49:29.288Z,15.28
2018-12-19T05:51:58.532Z,17.33
2018-12-19T05:54:27.436Z,21.12
2018-12-19T05:56:56.593Z,25.80
2018-12-19T05:59:25.831Z,17.60
2018-12-19T06:01:55.071Z,18.67
2018-12-19T06:04:24.334Z,11.87
2018-12-19T06:06:53.238Z,14.00
2018-12-19T06:09:22.014Z,18.07
2018-12-19T06:11:51.223Z,15.40
2018-12-19T06:14:20.482Z,16.73
2018-12-19T06:16:49.631Z,10.70
2018-12-19T06:19:19.006Z,19.63
2018-12-19T06:21:48.548Z,9.93
2018-12-19T06:24:17.830Z,17.43
2018-12-19T06:26:47.079Z,18.20
2018-12-19T06:29:16.323Z,21.67
2018-12-19T06:31:45.596Z,15.87
2018-12-19T06:34:14.475Z,20.90
2018-12-19T06:36:43.747Z,16.37
2018-12-19T06:39:13.046Z,20.60
2018-12-19T06:41:41.911Z,11.43
2018-12-19T06:44:11.080Z,13.27
2018-12-19T06:46:40.372Z,19.57
2018-12-19T06:49:09.671Z,22.10
2018-12-19T06:51:38.960Z,11.73
2018-12-19T06:54:07.846Z,14.65
2018-12-19T06:56:36.619Z,14.80
2018-12-19T06:59:05.779Z,16.63
2018-12-19T07:01:35.026Z,12.00
2018-12-19T07:04:04.330Z,12.03
2018-12-19T07:06:33.210Z,11.00
2018-12-19T07:09:02.498Z,15.53
2018-12-19T07:11:31.378Z,13.25
2018-12-19T07:14:00.595Z,20.60
2018-12-19T07:16:29.995Z,18.50
2018-12-19T07:18:59.289Z,17.12
2018-12-19T07:21:28.655Z,14.53
2018-12-19T07:23:57.558Z,13.80
2018-12-19T07:26:26.394Z,16.73
2018-12-19T07:28:55.599Z,13.97
2018-12-19T07:31:24.843Z,12.47
2018-12-19T07:33:53.775Z,7.77
2018-12-19T07:36:22.591Z,11.10
2018-12-19T07:38:51.773Z,5.00
2018-12-19T07:41:21.011Z,9.80
2018-12-19T07:43:50.273Z,9.17
2018-12-19T07:46:20.092Z,3.93
2018-12-19T07:48:49.439Z,5.63
2018-12-19T07:51:19.245Z,5.57
2018-12-19T07:53:48.030Z,16.90
2018-12-19T07:56:17.461Z,19.47
2018-12-19T07:58:46.747Z,14.90
2018-12-19T08:01:17.390Z,16.57
2018-12-19T08:03:46.402Z,9.97
2018-12-19T08:06:15.573Z,8.07
2018-12-19T08:08:44.478Z,12.03
2018-12-19T08:11:13.656Z,15.73
2018-12-19T08:13:42.590Z,13.53
2018-12-19T08:16:11.862Z,17.27
2018-12-19T08:18:41.098Z,16.27
2018-12-19T08:21:10.387Z,13.17
2018-12-19T08:23:39.631Z,20.17
2018-12-19T08:26:08.879Z,11.60
2018-12-19T08:28:39.296Z,10.30
2018-12-19T08:31:08.691Z,8.97
2018-12-19T08:33:37.940Z,16.20
2018-12-19T08:36:07.288Z,11.97
2018-12-19T08:38:36.511Z,12.90
2018-12-19T08:41:05.468Z,12.00
2018-12-19T08:43:34.623Z,11.87
2018-12-19T08:46:03.511Z,7.73
2018-12-19T08:48:32.380Z,6.60
2018-12-19T08:51:01.631Z,10.77
2018-12-19T08:53:31.037Z,17.07
2018-12-19T08:56:00.286Z,12.97
2018-12-19T08:58:29.511Z,19.67
2018-12-19T09:00:58.825Z,10.43
2018-12-19T09:03:28.158Z,7.95
2018-12-19T09:05:57.007Z,13.78
2018-12-19T09:08:25.868Z,7.62
2018-12-19T09:10:55.279Z,10.33
2018-12-19T09:13:24.290Z,7.77
2018-12-19T09:15:53.451Z,11.50
2018-12-19T09:18:22.366Z,6.40
2018-12-19T09:20:51.621Z,8.13
2018-12-19T09:23:20.883Z,9.43
2018-12-19T09:25:50.223Z,9.80
2018-12-19T09:28:19.502Z,14.83
2018-12-19T09:30:48.799Z,9.93
2018-12-19T09:33:18.607Z,8.43
2018-12-19T09:35:47.443Z,7.87
2018-12-19T09:38:16.216Z,16.73
2018-12-19T09:40:45.416Z,10.33
2018-12-19T09:43:14.674Z,10.27
2018-12-19T09:45:43.562Z,9.43
2018-12-19T09:48:12.998Z,12.90
2018-12-19T09:50:41.899Z,6.73
2018-12-19T09:53:11.275Z,6.77
2018-12-19T09:55:40.504Z,5.70
2018-12-19T09:58:09.368Z,9.00
2018-12-19T10:00:38.581Z,12.20
2018-12-19T10:03:07.455Z,9.23
2018-12-19T10:05:36.595Z,9.88
2018-12-19T10:08:05.490Z,8.90
2018-12-19T10:10:34.646Z,10.23
2018-12-19T10:13:04.179Z,7.20
2018-12-19T10:15:33.062Z,13.20
2018-12-19T10:18:02.227Z,8.67
2018-12-19T10:20:31.149Z,4.57
2018-12-19T10:23:00.303Z,7.10
2018-12-19T10:25:29.555Z,8.93
2018-12-19T10:27:58.803Z,4.97
2018-12-19T10:30:27.752Z,7.00
2018-12-19T10:32:57.143Z,6.77
2018-12-19T10:35:26.218Z,7.47
2018-12-19T10:37:55.375Z,3.93
2018-12-19T10:40:24.685Z,7.70
2018-12-19T10:42:53.975Z,5.70
2018-12-19T10:45:22.932Z,5.07
2018-12-19T10:47:51.711Z,9.87
2018-12-19T10:50:21.165Z,11.90
2018-12-19T10:52:50.696Z,7.37
2018-12-19T10:55:19.995Z,10.90
2018-12-19T10:57:49.147Z,12.27
2018-12-19T11:00:23.762Z,7.97
2018-12-19T11:02:52.928Z,8.50
2018-12-19T11:05:23.031Z,8.60
2018-12-19T11:07:51.896Z,7.25
2018-12-19T11:10:21.354Z,12.83
2018-12-19T11:12:50.259Z,6.87
2018-12-19T11:15:20.144Z,6.23
2018-12-19T11:17:49.451Z,7.17
2018-12-19T11:20:18.387Z,11.03
2018-12-19T11:22:47.574Z,11.73
2018-12-19T11:25:16.478Z,9.20
2018-12-19T11:27:45.350Z,5.87
2018-12-19T11:30:14.242Z,8.00
2018-12-19T11:32:43.026Z,7.17
2018-12-19T11:35:11.815Z,6.80
2018-12-19T11:37:41.017Z,11.48
2018-12-19T11:40:10.324Z,7.83
2018-12-19T11:42:39.310Z,9.27
2018-12-19T11:45:08.827Z,9.77
2018-12-19T11:47:38.102Z,6.53
2018-12-19T11:50:08.674Z,11.63
2018-12-19T11:52:37.678Z,8.07
2018-12-19T11:55:06.510Z,8.67
2018-12-19T11:57:35.398Z,5.42
2018-12-19T12:00:06.495Z,9.20
2018-12-19T12:02:35.924Z,10.97
2018-12-19T12:05:05.053Z,10.43
2018-12-19T12:07:34.244Z,5.40
2018-12-19T12:10:03.567Z,11.47
2018-12-19T12:12:32.443Z,12.28
2018-12-19T12:15:01.668Z,9.63
2018-12-19T12:17:30.927Z,10.93
2018-12-19T12:20:00.215Z,9.93
2018-12-19T12:22:29.140Z,9.20
2018-12-19T12:24:57.996Z,8.03
2018-12-19T12:27:27.195Z,3.70
2018-12-19T12:29:56.547Z,6.67
2018-12-19T12:32:25.458Z,6.40
2018-12-19T12:34:54.306Z,9.60
2018-12-19T12:37:23.139Z,11.60
2018-12-19T12:39:52.461Z,8.20
2018-12-19T12:42:21.720Z,14.60
2018-12-19T12:44:51.337Z,8.40
2018-12-19T12:47:21.170Z,10.32
2018-12-19T12:49:50.538Z,9.37
2018-12-19T12:52:20.402Z,16.67
2018-12-19T12:54:49.295Z,7.50
2018-12-19T12:57:18.460Z,6.70
2018-12-19T12:59:47.743Z,8.83
2018-12-19T13:02:16.642Z,10.40
2018-12-19T13:04:46.121Z,7.87
2018-12-19T13:07:14.927Z,4.87
2018-12-19T13:09:44.078Z,9.13
2018-12-19T13:12:13.365Z,8.63
2018-12-19T13:14:42.287Z,8.00
2018-12-19T13:17:11.472Z,8.13
2018-12-19T13:19:40.854Z,11.27
2018-12-19T13:22:09.725Z,7.27
2018-12-19T13:24:38.864Z,7.07
2018-12-19T13:27:08.240Z,8.13
2018-12-19T13:29:37.644Z,9.70
2018-12-19T13:32:07.020Z,9.90
2018-12-19T13:34:36.273Z,12.23
2018-12-19T13:37:05.563Z,12.13
2018-12-19T13:39:34.948Z,12.93
2018-12-19T13:42:05.749Z,7.70
2018-12-19T13:44:34.652Z,6.33
2018-12-19T13:47:03.507Z,6.27
2018-12-19T13:49:32.635Z,7.07
2018-12-19T13:52:01.922Z,8.27
2018-12-19T13:54:30.799Z,6.87
2018-12-19T13:56:59.995Z,8.57
2018-12-19T13:59:28.871Z,10.82
2018-12-19T14:01:58.451Z,4.53
2018-12-19T14:04:27.639Z,9.60
2018-12-19T14:06:57.480Z,6.03
2018-12-19T14:09:26.759Z,5.03
2018-12-19T14:11:55.987Z,5.87
2018-12-19T14:14:24.862Z,4.13
2018-12-19T14:16:54.102Z,4.90
2018-12-19T14:19:23.023Z,3.80
2018-12-19T14:21:51.836Z,5.47
2018-12-19T14:24:20.614Z,3.10
2018-12-19T14:26:49.403Z,2.23
2018-12-19T14:29:19.054Z,3.70
2018-12-19T14:31:48.202Z,2.27
2018-12-19T14:34:17.067Z,3.57
2018-12-19T14:36:45.881Z,2.93
2018-12-19T14:39:15.192Z,2.63
2018-12-19T14:41:44.011Z,5.83
2018-12-19T14:44:13.195Z,1.07
2018-12-19T14:46:42.077Z,2.90
2018-12-19T14:49:13.934Z,3.70
2018-12-19T14:51:41.687Z,13.93
2018-12-19T14:54:10.458Z,12.23
2018-12-19T14:56:39.319Z,15.77
2018-12-19T14:59:08.558Z,15.70
2018-12-19T15:01:37.455Z,17.77
2018-12-19T15:04:07.075Z,17.60
2018-12-19T15:06:35.882Z,20.33
2018-12-19T15:09:06.423Z,15.23
2018-12-19T15:11:35.265Z,16.80
2018-12-19T15:14:04.417Z,11.73
2018-12-19T15:16:33.315Z,24.00
2018-12-19T15:19:02.285Z,15.90
2018-12-19T15:21:31.089Z,21.50
2018-12-19T15:23:59.878Z,14.63
2018-12-19T15:26:29.076Z,19.30
2018-12-19T15:28:58.377Z,10.03
2018-12-19T15:31:28.384Z,18.13
2018-12-19T15:33:57.262Z,16.80
2018-12-19T15:36:26.328Z,15.58
2018-12-19T15:38:55.532Z,17.80
2018-12-19T15:41:24.431Z,13.03
2018-12-19T15:43:53.604Z,16.10
2018-12-19T15:46:22.510Z,16.30
2018-12-19T15:48:51.368Z,19.60
2018-12-19T15:51:20.147Z,17.57
2018-12-19T15:53:48.946Z,14.00
2018-12-19T15:56:17.722Z,19.93
2018-12-19T15:58:46.548Z,12.03
2018-12-19T16:01:15.714Z,8.70
2018-12-19T16:03:44.619Z,5.33
2018-12-19T16:06:13.455Z,12.13
2018-12-19T16:08:42.725Z,10.27
2018-12-19T16:11:11.956Z,7.70
2018-12-19T16:13:40.995Z,5.87
2018-12-19T16:16:10.298Z,7.43
2018-12-19T16:18:39.579Z,8.23
2018-12-19T16:21:08.831Z,6.83
2018-12-19T16:23:38.071Z,11.20
2018-12-19T16:26:06.966Z,5.10
2018-12-19T16:28:35.815Z,5.87
2018-12-19T16:31:04.590Z,3.17
2018-12-19T16:33:33.854Z,6.00
2018-12-19T16:36:03.024Z,6.73
2018-12-19T16:38:32.580Z,1.40
2018-12-19T16:41:01.454Z,3.13
2018-12-19T16:43:30.258Z,7.40
2018-12-19T16:45:59.424Z,5.80
2018-12-19T16:48:28.739Z,3.15
2018-12-19T16:50:57.606Z,3.93
2018-12-19T16:53:26.812Z,4.03
2018-12-19T16:55:56.048Z,2.80
2018-12-19T16:58:25.176Z,7.50
2018-12-19T17:00:54.381Z,5.17
2018-12-19T17:03:23.282Z,8.50
2018-12-19T17:05:52.445Z,13.13
2018-12-19T17:08:21.314Z,14.90
2018-12-19T17:10:50.935Z,9.80
2018-12-19T17:13:20.184Z,6.03
2018-12-19T17:15:49.083Z,8.67
2018-12-19T17:18:19.074Z,7.40
2018-12-19T17:20:48.335Z,7.60
2018-12-19T17:23:17.594Z,5.67
2018-12-19T17:25:47.751Z,15.93
2018-12-19T17:28:16.742Z,6.77
2018-12-19T17:30:45.538Z,7.53
2018-12-19T17:33:14.335Z,5.87
2018-12-19T17:35:43.118Z,4.67
2018-12-19T17:38:12.123Z,8.23
2018-12-19T17:40:41.400Z,8.87
2018-12-19T17:43:10.706Z,8.53
2018-12-19T17:45:39.952Z,12.10
2018-12-19T17:48:09.491Z,10.70
2018-12-19T17:50:38.394Z,5.90
2018-12-19T17:53:07.220Z,8.90
2018-12-19T17:55:36.408Z,11.53
2018-12-19T17:58:05.347Z,7.13
2018-12-19T18:00:34.186Z,10.53
2018-12-19T18:03:03.098Z,9.30
2018-12-19T18:05:31.949Z,9.83
2018-12-19T18:08:00.775Z,10.93
2018-12-19T18:10:29.623Z,12.43
2018-12-19T18:12:58.424Z,10.47
2018-12-19T18:15:27.222Z,10.28
2018-12-19T18:17:56.501Z,11.67
2018-12-19T18:20:25.420Z,12.07
2018-12-19T18:22:54.649Z,10.03
2018-12-19T18:25:23.555Z,10.40
2018-12-19T18:27:52.839Z,8.03
2018-12-19T18:30:22.086Z,11.03
2018-12-19T18:32:50.971Z,10.07
2018-12-19T18:35:19.851Z,9.87
2018-12-19T18:37:48.663Z,9.73
2018-12-19T18:40:17.831Z,8.40
2018-12-19T18:42:47.148Z,7.37
2018-12-19T18:45:16.037Z,11.93
2018-12-19T18:47:44.837Z,7.80
2018-12-19T18:50:14.015Z,9.90
2018-12-19T18:52:43.316Z,14.83
2018-12-19T18:55:12.187Z,12.37
2018-12-19T18:57:41.356Z,10.20
2018-12-19T19:00:11.052Z,14.37
2018-12-19T19:02:40.026Z,10.20
2018-12-19T19:05:08.844Z,9.40
2018-12-19T19:07:38.141Z,11.90
2018-12-19T19:10:07.214Z,8.47
2018-12-19T19:12:36.084Z,11.43
2018-12-19T19:15:05.883Z,10.40
2018-12-19T19:17:34.826Z,3.27
2018-12-19T19:20:03.934Z,13.30
2018-12-19T19:22:32.780Z,9.58
2018-12-19T19:25:01.940Z,7.13
2018-12-19T19:27:30.969Z,10.23
2018-12-19T19:30:00.161Z,9.90
2018-12-19T19:32:29.400Z,9.00
2018-12-19T19:34:58.320Z,12.33
2018-12-19T19:37:27.602Z,12.77
2018-12-19T19:39:56.958Z,11.20
2018-12-19T19:42:25.854Z,6.47
2018-12-19T19:44:54.788Z,15.17
2018-12-19T19:47:24.071Z,15.07
2018-12-19T19:49:52.918Z,10.47
2018-12-19T19:52:22.255Z,15.50
2018-12-19T19:54:51.127Z,13.00
2018-12-19T19:57:20.513Z,12.47
2018-12-19T19:59:49.333Z,13.20
2018-12-19T20:02:18.545Z,14.37
2018-12-19T20:04:47.506Z,13.03
2018-12-19T20:07:16.275Z,13.27
2018-12-19T20:09:45.106Z,13.07
2018-12-19T20:12:14.368Z,13.07
2018-12-19T20:14:43.238Z,17.30
2018-12-19T20:17:16.310Z,15.17
2018-12-19T20:19:45.093Z,15.60
2018-12-19T20:22:14.288Z,11.93
2018-12-19T20:24:44.312Z,14.67
2018-12-19T20:27:13.682Z,13.67
2018-12-19T20:29:42.614Z,13.83
2018-12-19T20:32:11.849Z,15.07
2018-12-19T20:34:40.754Z,8.03
2018-12-19T20:37:09.971Z,11.73
2018-12-19T20:39:38.877Z,13.33
2018-12-19T20:42:07.756Z,13.32
2018-12-19T20:44:36.577Z,10.77
2018-12-19T20:47:05.453Z,13.53
2018-12-19T20:49:34.623Z,16.23
2018-12-19T20:52:03.947Z,15.05
2018-12-19T20:54:33.321Z,18.03
2018-12-19T20:57:02.382Z,9.27
2018-12-19T20:59:31.643Z,6.42
2018-12-19T21:02:01.487Z,8.87
2018-12-19T21:04:30.668Z,7.83
2018-12-19T21:06:59.555Z,7.00
2018-12-19T21:09:28.739Z,8.77
2018-12-19T21:11:58.052Z,5.53
2018-12-19T21:14:27.003Z,6.77
2018-12-19T21:17:01.076Z,8.57
2018-12-19T21:19:30.434Z,10.20
2018-12-19T21:21:59.382Z,13.57
2018-12-19T21:24:28.531Z,11.33
2018-12-19T21:26:57.847Z,12.37
2018-12-19T21:29:26.814Z,11.60
2018-12-19T21:31:56.035Z,18.10
2018-12-19T21:34:24.926Z,6.83
2018-12-19T21:36:53.778Z,5.43
2018-12-19T21:39:22.643Z,13.17
2018-12-19T21:41:51.960Z,23.93
2018-12-19T21:44:21.276Z,11.80
2018-12-19T21:46:50.246Z,17.00
2018-12-19T21:49:19.667Z,12.27
2018-12-19T21:51:49.002Z,14.03
2018-12-19T21:54:17.886Z,14.47
2018-12-19T21:56:46.781Z,15.63
2018-12-19T21:59:16.473Z,13.80
2018-12-19T22:01:45.767Z,10.77
2018-12-19T22:04:14.650Z,17.80
2018-12-19T22:06:43.852Z,15.40
2018-12-19T22:09:13.401Z,14.90
2018-12-19T22:11:42.771Z,10.27
2018-12-19T22:14:11.738Z,9.50
2018-12-19T22:16:46.244Z,7.60
2018-12-19T22:19:15.174Z,10.43
2018-12-19T22:21:44.021Z,18.27
2018-12-19T22:24:13.227Z,9.80
2018-12-19T22:26:42.169Z,15.80
2018-12-19T22:29:11.340Z,11.70
2018-12-19T22:31:40.663Z,12.77
2018-12-19T22:34:09.943Z,13.60
2018-12-19T22:36:39.272Z,13.85
2018-12-19T22:39:13.783Z,11.93
2018-12-19T22:41:43.051Z,12.23
2018-12-19T22:44:12.440Z,13.97
2018-12-19T22:46:41.767Z,10.93
2018-12-19T22:49:11.014Z,8.33
2018-12-19T22:51:40.490Z,13.07
2018-12-19T22:54:09.934Z,11.40
2018-12-19T22:56:39.215Z,13.30
2018-12-19T22:59:08.509Z,22.47
2018-12-19T23:01:43.303Z,10.58
2018-12-19T23:04:12.634Z,13.00
2018-12-19T23:06:42.015Z,10.88
2018-12-19T23:09:11.304Z,9.07
2018-12-19T23:11:40.800Z,9.13
2018-12-19T23:14:15.286Z,4.43
2018-12-19T23:16:41.311Z,4.27
2018-12-19T23:19:10.600Z,5.10
2018-12-19T23:21:39.941Z,6.03
2018-12-19T23:24:09.508Z,10.70
2018-12-19T23:26:38.848Z,1.90
2018-12-19T23:29:08.077Z,5.03
2018-12-19T23:31:37.489Z,4.50
2018-12-19T23:34:06.815Z,7.37
2018-12-19T23:36:36.038Z,8.33
2018-12-19T23:39:07.808Z,10.27
2018-12-19T23:41:36.819Z,16.67
2018-12-19T23:44:06.029Z,19.83
2018-12-19T23:46:35.325Z,14.43
2018-12-19T23:49:04.802Z,12.03
2018-12-19T23:51:34.091Z,11.73
2018-12-19T23:54:03.717Z,18.23
2018-12-19T23:56:33.075Z,19.27
2018-12-19T23:59:02.414Z,22.07
